Terminal Aerodrome Forecast
Issued by NWS

Home | Current Version | Previous Version | Text Only | Print | Product List | Glossary On
Versions: 1 2 3 4 5 6 7 8 9 10 11 12 13 14 15 16 17 18 19 20 21 22 23 24 25 26 27 28 29 30 31 32 33 34 35 36 37 38 39 40 41 42 43 44 45 46 47 48 49
000
FTUS42 KCAE 180236 AAA
TAFOGB
TAF AMD
KOGB 180236Z 1803/1824 18007KT P6SM SKC
     FM181000 00000KT 6SM BR SCT005
      TEMPO 1810/1814 4SM BR BKN005
     FM181400 21006KT P6SM SCT020
     FM181800 19008KT P6SM VCSH BKN050=

USA.gov is the U.S. government's official web portal to all federal, state and local government web resources and services.